Shemah Yisrael!
Hear, O Israel: the LORD our God, the LORD is one.
You shall love the LORD your God with all your heart and with all your soul and with all your might.
(Deuteronomy 6:4-5)
Houston / Ellington, TX, United States (KEFD) 29-36N 095-10W
Aug 08, 2022 - 02:54 PM EDT / 2022.08.08 1854 UTC
Wind: from the SE (130 degrees) at 15 MPH (13 KT):0
Visibility: 10 mile(s):0
Sky conditions: partly cloudy
Temperature: 91 F (33 C)
Heat index: 99.1 F (37.3 C):1
Dew Point: 73 F (23 C)
Relative Humidity: 55%
Pressure (altimeter): 30.04 in. Hg (1017 hPa)
ob: KEFD 081854Z 13013KT 10SM SCT045 33/23 A3004 
cycle: 19
w e b m a s t e r   a t   s h e m a h   d o t   n e t